createdAt,value
2023-03-30T06:45:37.253Z,23.35
2023-03-30T06:48:39.847Z,23.20
2023-03-30T06:51:42.356Z,21.50
2023-03-30T06:54:44.840Z,24.15
2023-03-30T06:57:47.522Z,22.70
2023-03-30T07:00:51.652Z,18.80
2023-03-30T07:03:54.322Z,17.45
2023-03-30T07:06:57.839Z,20.88
2023-03-30T07:10:00.579Z,20.77
2023-03-30T07:13:03.122Z,18.17
2023-03-30T07:16:07.975Z,17.65
2023-03-30T07:19:10.496Z,15.35
2023-03-30T07:22:13.007Z,12.52
2023-03-30T07:25:15.605Z,14.98
2023-03-30T07:28:18.493Z,13.65
2023-03-30T07:31:22.342Z,13.40
2023-03-30T07:37:39.123Z,11.70
2023-03-30T07:40:42.097Z,13.20
2023-03-30T07:43:45.176Z,12.23
2023-03-30T07:46:47.820Z,13.80
2023-03-30T07:49:51.098Z,12.50
2023-03-30T07:52:55.122Z,12.07
2023-03-30T07:55:57.723Z,12.07
2023-03-30T07:59:01.778Z,13.13
2023-03-30T08:02:05.621Z,10.98
2023-03-30T08:05:09.505Z,11.88
2023-03-30T08:08:13.832Z,12.00
2023-03-30T08:11:16.510Z,12.90
2023-03-30T08:14:19.090Z,9.95
2023-03-30T08:17:21.573Z,11.00
2023-03-30T08:20:24.215Z,9.75
2023-03-30T08:23:28.256Z,11.52
2023-03-30T08:26:30.894Z,12.15
2023-03-30T08:29:33.773Z,10.73
2023-03-30T08:32:36.338Z,12.70
2023-03-30T08:35:39.398Z,10.25
2023-03-30T08:38:46.107Z,9.30
2023-03-30T08:42:08.216Z,8.73
2023-03-30T08:45:12.780Z,11.35
2023-03-30T08:48:19.782Z,8.43
2023-03-30T08:51:24.855Z,9.63
2023-03-30T08:54:30.652Z,10.45
2023-03-30T08:57:48.393Z,8.85
2023-03-30T09:00:56.702Z,10.25
2023-03-30T09:04:08.741Z,8.10
2023-03-30T09:07:18.127Z,12.68
2023-03-30T09:10:23.951Z,7.53
2023-03-30T09:13:30.989Z,8.85
2023-03-30T09:16:38.614Z,7.45
2023-03-30T09:19:50.161Z,6.07
2023-03-30T09:22:54.480Z,7.65
2023-03-30T09:26:07.419Z,6.18
2023-03-30T09:29:15.264Z,6.85
2023-03-30T09:32:25.031Z,6.47
2023-03-30T09:35:36.330Z,6.53
2023-03-30T09:38:42.033Z,5.88
2023-03-30T09:42:09.085Z,8.27
2023-03-30T09:45:18.069Z,6.53
2023-03-30T09:48:21.291Z,5.95
2023-03-30T09:51:25.606Z,6.78
2023-03-30T09:54:35.719Z,5.65
2023-03-30T09:57:39.555Z,4.82
2023-03-30T10:00:42.089Z,6.50
2023-03-30T10:03:46.204Z,7.78
2023-03-30T10:06:50.794Z,7.60
2023-03-30T10:09:53.671Z,6.80
2023-03-30T10:13:04.623Z,6.60
2023-03-30T10:16:09.530Z,5.45
2023-03-30T10:19:19.205Z,7.82
2023-03-30T10:22:23.351Z,5.60
2023-03-30T10:25:29.672Z,3.83
2023-03-30T10:28:35.918Z,6.68
2023-03-30T10:31:40.602Z,5.05
2023-03-30T10:34:45.527Z,10.60
2023-03-30T10:37:49.068Z,10.68
2023-03-30T10:40:58.805Z,6.28
2023-03-30T10:44:16.401Z,5.53
2023-03-30T10:47:33.552Z,7.22
2023-03-30T10:50:46.246Z,4.30
2023-03-30T10:53:56.886Z,6.30
2023-03-30T10:57:07.897Z,10.45
2023-03-30T11:00:43.364Z,8.77
2023-03-30T11:03:51.171Z,5.78
2023-03-30T11:06:57.477Z,7.60
2023-03-30T11:10:07.059Z,9.50
2023-03-30T11:13:16.757Z,8.05
2023-03-30T11:16:24.432Z,6.43
2023-03-30T11:19:33.562Z,5.53
2023-03-30T11:22:39.367Z,9.93
2023-03-30T11:25:53.913Z,7.18
2023-03-30T11:29:03.974Z,3.75
2023-03-30T11:32:18.003Z,6.32
2023-03-30T11:35:31.228Z,5.68
2023-03-30T11:38:42.516Z,4.43
2023-03-30T11:41:49.498Z,6.18
2023-03-30T11:44:52.604Z,5.60
2023-03-30T11:48:10.165Z,6.10
2023-03-30T11:51:29.828Z,7.00
2023-03-30T11:55:03.630Z,4.80
2023-03-30T11:58:18.370Z,4.25
2023-03-30T12:01:31.789Z,5.60
2023-03-30T12:04:45.929Z,8.07
2023-03-30T12:07:58.707Z,8.27
2023-03-30T12:11:06.800Z,5.53
2023-03-30T12:14:28.409Z,5.10
2023-03-30T12:17:45.356Z,4.82
2023-03-30T12:20:54.296Z,3.45
2023-03-30T12:24:05.016Z,3.17
2023-03-30T12:27:11.789Z,4.78
2023-03-30T12:30:24.564Z,6.03
2023-03-30T12:33:29.182Z,4.95
2023-03-30T12:36:38.145Z,6.82
2023-03-30T12:39:48.845Z,5.05
2023-03-30T12:43:01.685Z,4.77
2023-03-30T12:46:14.117Z,6.43
2023-03-30T12:49:27.056Z,5.78
2023-03-30T12:52:43.109Z,6.22
2023-03-30T12:55:47.990Z,5.00
2023-03-30T12:59:10.171Z,7.38
2023-03-30T13:02:39.798Z,7.50
2023-03-30T13:05:44.980Z,4.82
2023-03-30T13:08:54.226Z,7.05
2023-03-30T13:12:28.768Z,6.40
2023-03-30T13:15:35.814Z,7.05
2023-03-30T13:18:54.025Z,7.03
2023-03-30T13:21:58.621Z,5.95
2023-03-30T13:25:24.059Z,5.25
2023-03-30T13:28:48.746Z,11.07
2023-03-30T13:32:16.801Z,6.22
2023-03-30T13:35:46.189Z,7.80
2023-03-30T13:39:09.738Z,6.25
2023-03-30T13:42:27.056Z,4.38
2023-03-30T13:45:40.204Z,3.40
2023-03-30T13:48:56.619Z,4.97
2023-03-30T13:52:04.226Z,6.30
2023-03-30T13:55:16.067Z,6.85
2023-03-30T14:01:25.664Z,6.35
2023-03-30T14:04:30.917Z,4.47
2023-03-30T14:07:43.374Z,6.60
2023-03-30T14:10:48.244Z,8.55
2023-03-30T14:13:53.899Z,6.68
2023-03-30T14:16:57.421Z,7.20
2023-03-30T14:20:13.942Z,6.95
2023-03-30T14:23:20.391Z,7.45
2023-03-30T14:26:26.316Z,8.70
2023-03-30T14:29:32.022Z,4.63
2023-03-30T14:32:34.544Z,5.82
2023-03-30T14:35:41.919Z,8.85
2023-03-30T14:38:47.878Z,7.15
2023-03-30T14:41:51.167Z,9.40
2023-03-30T14:44:57.707Z,5.55
2023-03-30T14:48:00.385Z,7.65
2023-03-30T14:51:03.582Z,5.65
2023-03-30T14:54:07.566Z,3.40
2023-03-30T14:57:12.141Z,5.65
2023-03-30T15:00:20.402Z,6.38
2023-03-30T15:03:33.337Z,6.95
2023-03-30T15:06:37.742Z,6.68
2023-03-30T15:09:40.166Z,3.95
2023-03-30T15:12:45.485Z,5.70
2023-03-30T15:15:51.244Z,4.63
2023-03-30T15:18:58.377Z,5.25
2023-03-30T15:22:03.520Z,3.38
2023-03-30T15:25:09.020Z,5.95
2023-03-30T15:28:18.979Z,6.22
2023-03-30T15:31:23.364Z,5.47
2023-03-30T15:34:25.897Z,5.70
2023-03-30T15:37:30.101Z,4.15
2023-03-30T15:40:35.890Z,7.18
2023-03-30T15:43:52.679Z,7.70
2023-03-30T15:46:58.652Z,7.65
2023-03-30T15:50:01.436Z,7.57
2023-03-30T15:53:05.969Z,8.60
2023-03-30T15:56:13.919Z,7.85
2023-03-30T15:59:19.993Z,6.43
2023-03-30T16:02:25.542Z,5.65
2023-03-30T16:05:30.501Z,6.20
2023-03-30T16:08:33.091Z,5.35
2023-03-30T16:11:36.249Z,5.88
2023-03-30T16:14:38.817Z,5.95
2023-03-30T16:17:42.642Z,6.65
2023-03-30T16:20:45.092Z,5.57
2023-03-30T16:23:47.494Z,6.60
2023-03-30T16:26:49.956Z,5.53
2023-03-30T16:29:52.378Z,4.85
2023-03-30T16:32:56.158Z,7.72
2023-03-30T16:35:58.653Z,9.45
2023-03-30T16:44:15.386Z,8.93
2023-03-30T16:47:20.268Z,4.75
2023-03-30T16:50:24.957Z,7.43
2023-03-30T16:53:27.369Z,7.65
2023-03-30T16:56:30.107Z,8.50
2023-03-30T16:59:34.145Z,8.73
2023-03-30T17:02:36.595Z,5.78
2023-03-30T17:05:39.758Z,5.88
2023-03-30T17:08:43.028Z,6.65
